createdAt,value
2023-02-18T00:01:12.076Z,2.72
2023-02-18T00:03:39.312Z,2.64
2023-02-18T00:06:24.825Z,2.81
2023-02-18T00:08:52.239Z,2.68
2023-02-18T00:11:20.964Z,2.73
2023-02-18T00:13:56.254Z,2.77
2023-02-18T00:16:24.938Z,2.84
2023-02-18T00:18:54.769Z,2.81
2023-02-18T00:21:21.397Z,2.82
2023-02-18T00:23:52.495Z,2.66
2023-02-18T00:26:19.833Z,2.73
2023-02-18T00:28:48.607Z,2.72
2023-02-18T00:31:24.770Z,2.64
2023-02-18T00:33:51.510Z,2.62
2023-02-18T00:36:19.986Z,2.62
2023-02-18T00:38:48.386Z,2.63
2023-02-18T00:41:15.647Z,2.60
2023-02-18T00:43:42.608Z,2.60
2023-02-18T00:46:10.215Z,2.40
2023-02-18T00:48:37.427Z,2.31
2023-02-18T00:51:04.961Z,2.19
2023-02-18T00:53:31.563Z,2.06
2023-02-18T00:55:58.460Z,2.00
2023-02-18T00:58:25.110Z,2.04
2023-02-18T01:00:51.990Z,1.99
2023-02-18T01:03:19.356Z,1.85
2023-02-18T01:05:46.434Z,1.75
2023-02-18T01:08:13.091Z,1.74
2023-02-18T01:10:45.068Z,1.74
2023-02-18T01:13:12.611Z,1.82
2023-02-18T01:15:40.673Z,1.75
2023-02-18T01:18:07.943Z,1.81
2023-02-18T01:20:36.531Z,1.59
2023-02-18T01:23:03.712Z,1.64
2023-02-18T01:25:31.185Z,1.73
2023-02-18T01:27:58.111Z,1.65
2023-02-18T01:30:25.163Z,1.68
2023-02-18T01:32:51.953Z,1.66
2023-02-18T01:35:20.301Z,1.76
2023-02-18T01:37:48.410Z,1.74
2023-02-18T01:40:17.707Z,1.79
2023-02-18T01:42:44.378Z,1.69
2023-02-18T01:45:37.193Z,1.66
2023-02-18T01:48:15.571Z,1.62
2023-02-18T01:50:46.631Z,1.30
2023-02-18T01:53:16.915Z,1.45
2023-02-18T01:55:44.280Z,1.41
2023-02-18T01:58:12.946Z,1.36
2023-02-18T02:00:39.982Z,1.47
2023-02-18T02:03:06.677Z,1.28
2023-02-18T02:05:34.367Z,1.36
2023-02-18T02:08:02.084Z,1.41
2023-02-18T02:10:41.917Z,1.03
2023-02-18T02:13:20.111Z,1.07
2023-02-18T02:15:59.051Z,1.13
2023-02-18T02:18:34.840Z,1.14
2023-02-18T02:21:04.450Z,1.33
2023-02-18T02:23:33.753Z,1.40
2023-02-18T02:26:34.205Z,1.50
2023-02-18T02:29:16.370Z,1.67
2023-02-18T02:32:01.359Z,1.63
2023-02-18T02:34:58.870Z,1.61
2023-02-18T02:37:40.636Z,1.68
2023-02-18T02:40:27.839Z,1.70
2023-02-18T02:43:31.752Z,1.60
2023-02-18T02:46:24.078Z,1.54
2023-02-18T02:49:08.072Z,1.43
2023-02-18T02:51:37.597Z,1.50
2023-02-18T02:54:33.803Z,1.38
2023-02-18T02:57:18.639Z,1.61
2023-02-18T02:59:53.367Z,1.61
2023-02-18T03:02:34.593Z,1.85
2023-02-18T03:05:38.906Z,2.01
2023-02-18T03:08:14.544Z,2.18
2023-02-18T03:11:02.456Z,2.27
2023-02-18T03:13:47.244Z,2.38
2023-02-18T03:16:35.689Z,2.32
2023-02-18T03:19:23.072Z,1.86
2023-02-18T03:21:58.732Z,1.16
2023-02-18T03:24:33.756Z,0.87
2023-02-18T03:27:25.366Z,0.72
2023-02-18T03:29:58.977Z,0.66
2023-02-18T03:32:27.363Z,0.50
2023-02-18T03:35:00.784Z,0.56
2023-02-18T03:37:28.579Z,0.68
2023-02-18T03:39:58.826Z,0.67
2023-02-18T03:42:28.328Z,0.70
2023-02-18T03:44:55.642Z,0.70
2023-02-18T03:47:22.509Z,0.79
2023-02-18T03:49:49.228Z,0.92
2023-02-18T03:52:15.886Z,1.01
2023-02-18T03:54:42.738Z,1.11
2023-02-18T03:57:09.451Z,0.87
2023-02-18T03:59:36.131Z,1.04
2023-02-18T04:02:02.936Z,1.00
2023-02-18T04:04:30.337Z,1.06
2023-02-18T04:06:57.180Z,1.09
2023-02-18T04:09:23.957Z,1.26
2023-02-18T04:11:50.590Z,1.56
2023-02-18T04:14:17.147Z,1.78
2023-02-18T04:16:44.122Z,2.22
2023-02-18T04:19:10.731Z,2.51
2023-02-18T04:21:37.308Z,2.85
2023-02-18T04:24:04.158Z,2.92
2023-02-18T04:26:30.987Z,3.30
2023-02-18T04:28:57.586Z,3.62
2023-02-18T04:31:24.449Z,3.72
2023-02-18T04:33:51.422Z,3.69
2023-02-18T04:36:18.052Z,3.76
2023-02-18T04:38:44.663Z,3.82
2023-02-18T04:41:12.836Z,3.54
2023-02-18T04:43:39.596Z,3.28
2023-02-18T04:46:06.540Z,2.38
2023-02-18T04:48:35.047Z,1.53
2023-02-18T04:51:02.060Z,0.96
2023-02-18T04:53:28.600Z,0.45
2023-02-18T04:55:55.194Z,0.50
2023-02-18T04:58:22.212Z,0.57
2023-02-18T05:00:48.789Z,0.64
2023-02-18T05:03:15.423Z,0.45
2023-02-18T05:05:42.176Z,0.62
2023-02-18T05:08:09.211Z,0.88
2023-02-18T05:10:37.340Z,1.00
2023-02-18T05:13:04.115Z,1.05
2023-02-18T05:15:30.865Z,1.20
2023-02-18T05:17:57.451Z,1.16
2023-02-18T05:20:24.604Z,1.13
2023-02-18T05:22:51.189Z,1.05
2023-02-18T05:25:17.784Z,1.17
2023-02-18T05:27:44.430Z,1.19
2023-02-18T05:30:11.277Z,1.14
2023-02-18T05:32:37.967Z,1.20
2023-02-18T05:35:04.874Z,1.35
2023-02-18T05:37:31.858Z,1.43
2023-02-18T05:39:58.476Z,1.52
2023-02-18T05:42:25.084Z,1.73
2023-02-18T05:44:51.702Z,1.87
2023-02-18T05:47:18.462Z,1.87
2023-02-18T05:49:45.241Z,1.97
2023-02-18T05:52:12.713Z,1.74
2023-02-18T05:54:40.113Z,1.72
2023-02-18T05:57:06.788Z,1.63
2023-02-18T05:59:33.807Z,1.93
2023-02-18T06:02:00.865Z,2.05
2023-02-18T06:04:27.444Z,2.33
2023-02-18T06:06:54.826Z,2.29
2023-02-18T06:09:21.595Z,2.26
2023-02-18T06:11:48.157Z,2.33
2023-02-18T06:14:14.964Z,2.46
2023-02-18T06:16:41.575Z,2.52
2023-02-18T06:19:08.215Z,2.45
2023-02-18T06:21:34.957Z,2.27
2023-02-18T06:24:01.558Z,2.45
2023-02-18T06:26:28.292Z,2.46
2023-02-18T06:28:54.889Z,2.51
2023-02-18T06:31:21.676Z,2.46
2023-02-18T06:33:48.392Z,2.42
2023-02-18T06:36:17.695Z,2.36
2023-02-18T06:38:45.646Z,2.99
2023-02-18T06:41:13.455Z,3.20
2023-02-18T06:43:40.549Z,3.27
2023-02-18T06:46:08.253Z,3.47
2023-02-18T06:48:35.129Z,3.38
2023-02-18T06:51:01.780Z,3.29
2023-02-18T06:53:28.355Z,3.21
2023-02-18T06:55:55.006Z,3.57
2023-02-18T06:58:23.277Z,3.70
2023-02-18T07:00:49.979Z,3.81
2023-02-18T07:03:16.671Z,3.84
2023-02-18T07:05:43.338Z,3.88
2023-02-18T07:08:10.142Z,3.97
2023-02-18T07:10:36.928Z,3.91
2023-02-18T07:13:03.902Z,3.80
2023-02-18T07:15:30.821Z,3.95
2023-02-18T07:17:57.519Z,4.05
2023-02-18T07:20:24.983Z,4.22
2023-02-18T07:22:52.196Z,4.15
2023-02-18T07:25:21.485Z,4.46
2023-02-18T07:27:48.964Z,4.62
2023-02-18T07:30:16.128Z,4.75
2023-02-18T07:32:43.328Z,4.71
2023-02-18T07:35:13.463Z,4.90
2023-02-18T07:37:45.942Z,5.18
2023-02-18T07:40:18.809Z,5.31
2023-02-18T07:42:45.560Z,5.62
2023-02-18T07:45:13.781Z,5.76
2023-02-18T07:47:41.652Z,5.96
2023-02-18T07:50:09.760Z,6.32
2023-02-18T07:52:36.420Z,6.35
2023-02-18T07:55:03.152Z,6.37
2023-02-18T07:57:29.968Z,6.79
2023-02-18T07:59:56.547Z,7.07
2023-02-18T08:02:24.500Z,7.16
2023-02-18T08:04:51.399Z,7.54
2023-02-18T08:07:21.032Z,7.41
2023-02-18T08:09:49.172Z,8.10
2023-02-18T08:12:16.266Z,8.36
2023-02-18T08:14:42.908Z,8.60
2023-02-18T08:17:09.498Z,8.82
2023-02-18T08:19:36.099Z,9.00
2023-02-18T08:22:03.224Z,8.94
2023-02-18T08:24:29.845Z,9.02
2023-02-18T08:27:00.848Z,9.17
2023-02-18T08:29:28.136Z,9.18
2023-02-18T08:31:57.233Z,9.15
2023-02-18T08:34:24.082Z,9.28
2023-02-18T08:36:50.721Z,8.93
2023-02-18T08:39:17.387Z,9.28
2023-02-18T08:41:44.001Z,9.25
2023-02-18T08:44:10.750Z,9.60
2023-02-18T08:46:37.448Z,9.76
2023-02-18T08:49:04.996Z,9.93
2023-02-18T08:51:31.750Z,10.05
2023-02-18T08:54:01.966Z,10.10
2023-02-18T08:56:28.755Z,10.35
2023-02-18T08:58:55.342Z,10.36
2023-02-18T09:01:22.193Z,10.30
2023-02-18T09:03:48.913Z,10.40
2023-02-18T09:06:16.009Z,10.30
2023-02-18T09:08:42.658Z,10.60
2023-02-18T09:11:11.175Z,10.63
2023-02-18T09:13:38.042Z,10.71
2023-02-18T09:16:08.235Z,10.84
2023-02-18T09:18:36.058Z,11.01
2023-02-18T09:21:03.930Z,11.32
2023-02-18T09:23:31.771Z,11.57
2023-02-18T09:25:58.963Z,11.66
2023-02-18T09:28:26.262Z,11.76
2023-02-18T09:30:53.276Z,12.19
2023-02-18T09:33:20.485Z,12.58
2023-02-18T09:35:47.507Z,12.86
2023-02-18T09:38:17.409Z,12.97
2023-02-18T09:40:53.758Z,13.41
2023-02-18T09:43:34.687Z,13.28
2023-02-18T09:46:04.365Z,13.58
2023-02-18T09:48:37.310Z,13.54
2023-02-18T09:51:04.171Z,13.80
2023-02-18T09:53:30.833Z,13.96
2023-02-18T09:55:58.658Z,14.14
2023-02-18T09:58:29.314Z,14.19
2023-02-18T10:01:31.072Z,14.22
2023-02-18T10:04:07.482Z,14.52
2023-02-18T10:06:35.500Z,14.56
2023-02-18T10:09:16.875Z,14.71
2023-02-18T10:11:49.466Z,14.79
2023-02-18T10:14:16.543Z,15.36
2023-02-18T10:16:47.427Z,15.46
2023-02-18T10:19:23.053Z,15.48
2023-02-18T10:21:52.085Z,15.01
2023-02-18T10:24:35.916Z,15.12
2023-02-18T10:27:07.285Z,14.97
2023-02-18T10:29:35.234Z,15.23
2023-02-18T10:32:16.984Z,15.01
2023-02-18T10:35:03.138Z,14.52
2023-02-18T10:37:44.684Z,14.83
2023-02-18T10:40:29.768Z,14.83
2023-02-18T10:43:21.193Z,14.74
2023-02-18T10:46:11.129Z,15.12
2023-02-18T10:48:47.543Z,14.70
2023-02-18T10:51:29.103Z,14.79
2023-02-18T10:53:56.460Z,14.98
2023-02-18T10:56:37.677Z,14.74
2023-02-18T10:59:18.727Z,14.19
2023-02-18T11:01:45.751Z,14.04
2023-02-18T11:04:18.087Z,13.83
2023-02-18T11:06:46.881Z,13.92
2023-02-18T11:09:38.007Z,14.06
2023-02-18T11:12:14.192Z,14.24
2023-02-18T11:14:51.347Z,13.95
2023-02-18T11:17:31.302Z,13.89
2023-02-18T11:20:00.065Z,13.95
2023-02-18T11:22:34.047Z,13.64
2023-02-18T11:25:04.233Z,13.80
2023-02-18T11:27:37.539Z,14.05
2023-02-18T11:30:15.005Z,13.96
2023-02-18T11:32:43.856Z,14.23
2023-02-18T11:35:20.066Z,14.43
2023-02-18T11:37:47.639Z,14.74
2023-02-18T11:40:28.499Z,14.83
2023-02-18T11:43:05.885Z,14.57
2023-02-18T11:45:34.396Z,14.64
2023-02-18T11:48:06.519Z,14.84
2023-02-18T11:50:33.474Z,14.88
2023-02-18T11:53:00.541Z,14.76
2023-02-18T11:55:31.162Z,15.20
2023-02-18T11:58:06.490Z,15.30
2023-02-18T12:00:38.656Z,15.44
2023-02-18T12:03:18.152Z,15.45
2023-02-18T12:05:45.935Z,15.45
2023-02-18T12:08:19.777Z,15.49
2023-02-18T12:10:54.114Z,15.53
2023-02-18T12:13:34.001Z,15.59
2023-02-18T12:16:30.786Z,15.53
2023-02-18T12:19:08.527Z,15.53
2023-02-18T12:21:41.076Z,15.35
2023-02-18T12:24:39.554Z,15.56
2023-02-18T12:27:29.202Z,15.68
2023-02-18T12:30:26.043Z,15.78
2023-02-18T12:32:55.496Z,15.43
2023-02-18T12:35:31.035Z,15.37
2023-02-18T12:38:22.742Z,15.47
2023-02-18T12:41:17.027Z,15.55
2023-02-18T12:44:05.470Z,15.33
2023-02-18T12:46:50.648Z,15.42
2023-02-18T12:49:26.276Z,15.49
2023-02-18T12:52:11.101Z,15.75
2023-02-18T12:55:10.434Z,15.80
2023-02-18T12:58:12.264Z,16.14
2023-02-18T13:00:51.344Z,16.15
2023-02-18T13:03:32.966Z,16.15
2023-02-18T13:06:15.638Z,16.13
2023-02-18T13:08:56.966Z,15.52
2023-02-18T13:11:54.384Z,15.74
2023-02-18T13:14:24.395Z,15.58
2023-02-18T13:16:57.630Z,15.64
2023-02-18T13:19:29.290Z,15.57
2023-02-18T13:22:10.982Z,15.56
2023-02-18T13:24:43.720Z,15.61
2023-02-18T13:27:55.922Z,15.43
2023-02-18T13:30:43.633Z,15.09
2023-02-18T13:33:22.634Z,15.36
2023-02-18T13:36:00.664Z,14.68
2023-02-18T13:38:52.049Z,15.22
2023-02-18T13:41:20.418Z,15.16
2023-02-18T13:43:48.001Z,14.90
2023-02-18T13:46:20.572Z,14.59
2023-02-18T13:48:53.218Z,14.86
2023-02-18T13:51:39.006Z,14.68
2023-02-18T13:54:17.255Z,14.71
2023-02-18T13:56:46.837Z,14.67
2023-02-18T13:59:23.546Z,14.57
2023-02-18T14:01:52.477Z,14.41
2023-02-18T14:04:37.897Z,14.27
2023-02-18T14:07:44.586Z,14.30
2023-02-18T14:10:11.111Z,14.29
2023-02-18T14:13:03.597Z,14.26
2023-02-18T14:15:30.054Z,14.25
2023-02-18T14:18:14.934Z,14.07
2023-02-18T14:20:41.582Z,14.05
2023-02-18T14:23:20.318Z,14.10
2023-02-18T14:26:04.973Z,13.90
2023-02-18T14:28:34.600Z,14.17
2023-02-18T14:31:30.109Z,14.16
2023-02-18T14:34:18.964Z,14.30
2023-02-18T14:36:45.592Z,14.32
2023-02-18T14:39:29.632Z,14.18
2023-02-18T14:42:09.332Z,14.05
2023-02-18T14:44:41.744Z,14.13
2023-02-18T14:47:18.032Z,14.15
2023-02-18T14:49:49.794Z,14.19
2023-02-18T14:52:39.393Z,14.12
2023-02-18T14:55:08.288Z,14.04
2023-02-18T14:57:44.211Z,13.81
2023-02-18T15:00:19.123Z,14.06
2023-02-18T15:02:49.505Z,14.06
2023-02-18T15:05:23.143Z,13.84
2023-02-18T15:08:08.867Z,13.97
2023-02-18T15:10:43.427Z,13.86
2023-02-18T15:13:21.028Z,13.92
2023-02-18T15:15:52.109Z,13.96
2023-02-18T15:18:25.464Z,13.84
2023-02-18T15:20:52.338Z,13.70
2023-02-18T15:23:19.046Z,13.67
2023-02-18T15:25:51.188Z,13.50
2023-02-18T15:28:31.055Z,13.56
2023-02-18T15:30:59.094Z,13.25
2023-02-18T15:33:27.211Z,12.95
2023-02-18T15:36:14.728Z,12.88
2023-02-18T15:38:43.012Z,12.96
2023-02-18T15:41:17.737Z,12.74
2023-02-18T15:44:03.202Z,12.78
2023-02-18T15:46:31.611Z,12.51
2023-02-18T15:48:59.951Z,12.42
2023-02-18T15:51:30.743Z,12.46
2023-02-18T15:54:02.617Z,12.48
2023-02-18T15:56:43.693Z,12.42
2023-02-18T15:59:24.403Z,11.85
2023-02-18T16:01:54.351Z,11.88
2023-02-18T16:04:23.641Z,11.84
2023-02-18T16:06:54.776Z,11.83
2023-02-18T16:09:32.805Z,11.70
2023-02-18T16:12:03.042Z,11.64
2023-02-18T16:14:46.966Z,11.59
2023-02-18T16:17:19.050Z,11.57
2023-02-18T16:20:04.780Z,11.39
2023-02-18T16:22:50.503Z,11.23
2023-02-18T16:25:24.314Z,10.75
2023-02-18T16:28:05.344Z,10.97
2023-02-18T16:30:34.574Z,11.26
2023-02-18T16:33:02.820Z,10.99
2023-02-18T16:35:47.486Z,11.29
2023-02-18T16:38:21.668Z,10.85
2023-02-18T16:40:49.069Z,11.13
2023-02-18T16:43:21.692Z,11.18
2023-02-18T16:45:55.383Z,11.16
2023-02-18T16:48:36.944Z,11.00
2023-02-18T16:51:07.687Z,10.92
2023-02-18T16:53:34.716Z,10.75
2023-02-18T16:56:02.581Z,10.50
2023-02-18T16:58:29.432Z,10.59
2023-02-18T17:00:59.513Z,10.35
2023-02-18T17:03:26.364Z,10.38
2023-02-18T17:08:41.252Z,10.53
2023-02-18T17:11:18.036Z,10.36
2023-02-18T17:13:44.704Z,10.54
2023-02-18T17:16:11.817Z,10.18
2023-02-18T17:18:38.911Z,10.36
2023-02-18T17:21:05.632Z,9.89
2023-02-18T17:23:32.333Z,10.11
2023-02-18T17:25:59.490Z,10.27
2023-02-18T17:28:26.342Z,10.14
2023-02-18T17:30:56.979Z,10.39
2023-02-18T17:33:25.409Z,10.50
2023-02-18T17:35:52.098Z,10.50
2023-02-18T17:38:19.856Z,10.19
2023-02-18T17:40:46.602Z,9.96
2023-02-18T17:43:15.372Z,9.59
2023-02-18T17:46:00.763Z,9.49
2023-02-18T17:48:28.423Z,9.79
2023-02-18T17:50:55.352Z,9.60
2023-02-18T17:53:22.618Z,9.66
2023-02-18T17:55:49.943Z,9.38
2023-02-18T17:58:17.266Z,9.50
2023-02-18T18:04:56.872Z,9.26
2023-02-18T18:07:31.427Z,9.06
2023-02-18T18:10:07.549Z,9.42
2023-02-18T18:15:57.955Z,9.93
2023-02-18T18:18:27.333Z,9.44
2023-02-18T18:20:58.465Z,9.07
2023-02-18T18:23:25.250Z,8.98
2023-02-18T18:25:56.067Z,9.26
2023-02-18T18:28:24.261Z,9.27
2023-02-18T18:30:53.492Z,9.57
2023-02-18T18:33:21.914Z,9.63
2023-02-18T18:35:52.420Z,9.63
2023-02-18T18:38:20.458Z,9.30
2023-02-18T18:40:47.761Z,9.48
2023-02-18T18:43:25.020Z,9.76
2023-02-18T18:45:53.305Z,9.57
2023-02-18T18:48:21.349Z,9.25
2023-02-18T18:50:49.461Z,9.15
2023-02-18T18:53:26.209Z,9.30
2023-02-18T18:55:55.515Z,9.08
2023-02-18T18:58:24.587Z,8.68
2023-02-18T19:01:00.620Z,9.24
2023-02-18T19:03:28.819Z,9.28
2023-02-18T19:05:55.879Z,8.76
2023-02-18T19:08:23.160Z,9.37
2023-02-18T19:10:56.638Z,9.05
2023-02-18T19:13:28.945Z,9.06
2023-02-18T19:16:28.190Z,9.48
2023-02-18T19:18:57.012Z,8.91
2023-02-18T19:21:23.869Z,9.50
2023-02-18T19:23:50.646Z,9.36
2023-02-18T19:26:17.917Z,9.33
2023-02-18T19:28:45.954Z,9.34
2023-02-18T19:31:13.143Z,9.02
2023-02-18T19:33:40.256Z,8.92
2023-02-18T19:36:09.026Z,8.88
2023-02-18T19:38:35.698Z,8.95
2023-02-18T19:41:12.447Z,8.79
2023-02-18T19:43:40.044Z,8.51
2023-02-18T19:46:17.886Z,8.46
2023-02-18T19:48:49.578Z,8.50
2023-02-18T19:51:16.945Z,8.33
2023-02-18T19:53:43.575Z,8.39
2023-02-18T19:56:10.320Z,8.24
2023-02-18T19:58:37.250Z,8.21
2023-02-18T20:01:04.500Z,8.21
2023-02-18T20:03:31.228Z,8.11
2023-02-18T20:05:57.796Z,8.16
2023-02-18T20:08:24.367Z,8.13
2023-02-18T20:11:00.104Z,8.00
2023-02-18T20:13:27.434Z,7.96
2023-02-18T20:15:54.427Z,7.86
2023-02-18T20:18:21.166Z,7.85
2023-02-18T20:20:51.350Z,7.87
2023-02-18T20:23:18.730Z,7.88
2023-02-18T20:25:47.680Z,7.89
2023-02-18T20:28:15.139Z,7.91
2023-02-18T20:30:42.042Z,8.00
2023-02-18T20:33:08.811Z,7.88
2023-02-18T20:35:35.739Z,8.05
2023-02-18T20:38:02.366Z,8.12
2023-02-18T20:40:29.013Z,7.93
2023-02-18T20:42:55.744Z,8.01
2023-02-18T20:45:22.428Z,8.05
2023-02-18T20:47:49.060Z,8.06
2023-02-18T20:50:16.103Z,7.95
2023-02-18T20:52:43.363Z,8.05
2023-02-18T20:55:10.188Z,8.00
2023-02-18T20:57:37.049Z,8.06
2023-02-18T21:00:04.654Z,8.02
2023-02-18T21:02:31.417Z,7.81
2023-02-18T21:04:58.046Z,8.25
2023-02-18T21:07:24.719Z,8.51
2023-02-18T21:09:51.401Z,8.97
2023-02-18T21:12:18.031Z,8.89
2023-02-18T21:14:44.685Z,9.00
2023-02-18T21:17:11.263Z,8.90
2023-02-18T21:19:37.920Z,9.04
2023-02-18T21:22:05.146Z,9.01
2023-02-18T21:24:32.036Z,8.68
2023-02-18T21:26:58.634Z,8.78
2023-02-18T21:29:25.346Z,8.62
2023-02-18T21:31:52.130Z,8.31
2023-02-18T21:34:18.769Z,7.91
2023-02-18T21:36:45.542Z,7.61
2023-02-18T21:39:12.254Z,7.47
2023-02-18T21:41:41.162Z,7.23
2023-02-18T21:44:08.757Z,7.14
2023-02-18T21:46:36.789Z,7.02
2023-02-18T21:49:12.396Z,6.76
2023-02-18T21:51:57.313Z,6.48
2023-02-18T21:54:32.066Z,6.50
2023-02-18T21:57:00.467Z,6.20
2023-02-18T21:59:29.394Z,6.28
2023-02-18T22:01:57.393Z,6.19
2023-02-18T22:04:24.083Z,5.88
2023-02-18T22:06:50.734Z,5.82
2023-02-18T22:09:17.342Z,5.82
2023-02-18T22:11:44.375Z,5.74
2023-02-18T22:14:11.967Z,5.74
2023-02-18T22:16:39.205Z,5.58
2023-02-18T22:19:06.427Z,5.36
2023-02-18T22:21:33.694Z,5.29
2023-02-18T22:24:00.399Z,5.18
2023-02-18T22:26:27.086Z,5.06
2023-02-18T22:28:55.712Z,4.88
2023-02-18T22:31:23.320Z,4.86
2023-02-18T22:33:52.148Z,4.71
2023-02-18T22:36:23.286Z,4.89
2023-02-18T22:38:50.430Z,4.19
2023-02-18T22:41:20.032Z,4.81
2023-02-18T22:43:47.029Z,4.74
2023-02-18T22:46:18.044Z,4.97
2023-02-18T22:48:45.309Z,5.01
2023-02-18T22:51:16.027Z,5.17
2023-02-18T22:53:43.966Z,5.20
2023-02-18T22:56:13.445Z,5.16
2023-02-18T22:58:41.311Z,4.94
2023-02-18T23:01:09.491Z,4.79
2023-02-18T23:03:36.331Z,4.97
2023-02-18T23:06:05.225Z,4.88
2023-02-18T23:08:33.447Z,4.98
2023-02-18T23:11:05.609Z,4.96
2023-02-18T23:13:32.707Z,5.02
2023-02-18T23:16:01.222Z,5.05
2023-02-18T23:18:28.726Z,5.25
2023-02-18T23:21:23.118Z,5.54
2023-02-18T23:23:54.894Z,5.78
2023-02-18T23:26:23.743Z,5.96
2023-02-18T23:28:52.272Z,6.04
2023-02-18T23:31:23.803Z,6.16
2023-02-18T23:33:54.177Z,6.29
2023-02-18T23:36:24.300Z,6.51
2023-02-18T23:38:53.183Z,6.59
2023-02-18T23:41:20.002Z,6.75
2023-02-18T23:43:47.259Z,6.82
2023-02-18T23:46:15.130Z,6.72
2023-02-18T23:48:42.151Z,6.95
2023-02-18T23:51:10.567Z,6.97
2023-02-18T23:53:37.949Z,6.94
2023-02-18T23:56:13.783Z,6.90
2023-02-18T23:58:41.664Z,6.79
